createdAt,value
2022-10-01T00:00:02.103Z,94.01
2022-10-01T00:05:26.188Z,94.12
2022-10-01T00:10:30.621Z,94.26
2022-10-01T00:15:33.727Z,94.35
2022-10-01T00:20:43.697Z,94.35
2022-10-01T00:25:46.800Z,94.41
2022-10-01T00:30:49.803Z,94.47
2022-10-01T00:35:55.091Z,94.43
2022-10-01T00:40:58.881Z,94.44
2022-10-01T00:46:18.730Z,94.53
2022-10-01T00:51:23.219Z,94.60
2022-10-01T00:56:26.629Z,94.64
2022-10-01T01:01:29.685Z,94.67
2022-10-01T01:06:32.841Z,94.62
2022-10-01T01:11:55.914Z,94.58
2022-10-01T01:17:08.812Z,94.56
2022-10-01T01:22:14.419Z,94.53
2022-10-01T01:27:46.619Z,94.60
2022-10-01T01:33:13.155Z,94.70
2022-10-01T01:38:22.293Z,94.72
2022-10-01T01:43:31.462Z,94.70
2022-10-01T01:48:37.926Z,94.68
2022-10-01T01:53:41.411Z,94.68
2022-10-01T01:58:46.091Z,94.72
2022-10-01T02:03:49.505Z,94.76
2022-10-01T02:08:55.271Z,94.82
2022-10-01T02:14:04.215Z,94.87
2022-10-01T02:19:20.120Z,94.95
2022-10-01T02:24:41.659Z,94.96
2022-10-01T02:29:45.994Z,94.90
2022-10-01T02:34:51.221Z,94.90
2022-10-01T02:39:57.584Z,94.95
2022-10-01T02:45:03.547Z,94.94
2022-10-01T02:50:08.732Z,94.90
2022-10-01T02:55:23.638Z,94.80
2022-10-01T03:00:27.257Z,94.66
2022-10-01T03:05:31.285Z,94.53
2022-10-01T03:10:35.003Z,94.47
2022-10-01T03:15:38.056Z,94.43
2022-10-01T03:20:41.215Z,94.35
2022-10-01T03:25:44.220Z,94.24
2022-10-01T03:30:47.220Z,94.14
2022-10-01T03:35:50.224Z,94.13
2022-10-01T03:40:53.536Z,94.11
2022-10-01T03:45:57.031Z,94.09
2022-10-01T03:51:00.975Z,94.01
2022-10-01T03:56:05.412Z,93.95
2022-10-01T04:01:08.518Z,93.86
2022-10-01T04:06:12.648Z,93.85
2022-10-01T04:11:15.855Z,93.88
2022-10-01T04:16:19.170Z,94.02
2022-10-01T04:21:22.270Z,94.29
2022-10-01T04:26:25.478Z,94.55
2022-10-01T04:31:35.284Z,94.75
2022-10-01T04:36:38.963Z,94.90
2022-10-01T04:41:42.174Z,94.92
2022-10-01T04:46:45.292Z,94.89
2022-10-01T04:51:48.583Z,94.83
2022-10-01T04:56:51.998Z,94.81
2022-10-01T05:01:55.029Z,94.86
2022-10-01T05:06:58.207Z,94.91
2022-10-01T05:12:01.954Z,95.10
2022-10-01T05:17:06.162Z,95.27
2022-10-01T05:22:09.264Z,95.48
2022-10-01T05:27:13.506Z,95.58
2022-10-01T05:32:16.808Z,95.62
2022-10-01T05:37:19.943Z,95.62
2022-10-01T05:42:23.018Z,95.50
2022-10-01T05:47:26.534Z,94.53
2022-10-01T05:52:29.742Z,79.30
2022-10-01T05:57:33.319Z,64.90
2022-10-01T06:02:36.531Z,57.87
2022-10-01T06:07:39.879Z,52.94
2022-10-01T06:12:46.247Z,49.03
2022-10-01T06:17:49.468Z,46.84
2022-10-01T06:22:57.386Z,43.00
2022-10-01T06:28:01.265Z,41.34
2022-10-01T06:33:13.223Z,38.47
2022-10-01T06:38:18.443Z,36.39
2022-10-01T06:43:22.761Z,34.86
2022-10-01T06:48:25.931Z,33.62
2022-10-01T06:53:29.759Z,31.88
2022-10-01T06:58:33.460Z,30.61
2022-10-01T07:03:36.673Z,29.94
2022-10-01T07:08:40.083Z,29.25
2022-10-01T07:13:43.188Z,27.89
2022-10-01T07:18:46.246Z,27.15
2022-10-01T07:23:49.401Z,25.84
2022-10-01T07:28:52.915Z,25.02
2022-10-01T07:33:59.296Z,25.37
2022-10-01T07:39:02.402Z,24.03
2022-10-01T07:44:05.611Z,23.97
2022-10-01T07:49:09.848Z,23.46
2022-10-01T07:54:13.972Z,24.19
2022-10-01T07:59:17.282Z,23.89
2022-10-01T08:04:40.152Z,23.64
2022-10-01T08:09:43.463Z,24.21
2022-10-01T08:14:48.118Z,22.57
2022-10-01T08:19:51.312Z,23.39
2022-10-01T08:24:54.978Z,23.69
2022-10-01T08:29:58.033Z,22.00
2022-10-01T08:35:01.564Z,22.03
2022-10-01T08:40:07.502Z,22.60
2022-10-01T08:45:27.633Z,21.94
2022-10-01T08:50:53.261Z,21.68
2022-10-01T08:55:57.934Z,21.63
2022-10-01T09:01:01.837Z,21.20
2022-10-01T09:06:11.576Z,21.31
2022-10-01T09:11:25.037Z,21.29
2022-10-01T09:16:56.205Z,21.07
2022-10-01T09:22:03.796Z,22.55
2022-10-01T09:27:19.538Z,22.36
2022-10-01T09:32:32.393Z,21.34
2022-10-01T09:37:49.173Z,20.81
2022-10-01T09:42:52.687Z,20.88
2022-10-01T09:48:04.183Z,22.31
2022-10-01T09:53:18.749Z,25.18
2022-10-01T09:58:27.091Z,27.05
2022-10-01T10:03:32.153Z,30.64
2022-10-01T10:08:43.461Z,34.31
2022-10-01T10:13:53.183Z,36.09
2022-10-01T10:19:07.175Z,37.31
2022-10-01T10:24:32.776Z,37.66
2022-10-01T10:29:37.866Z,40.56
2022-10-01T10:34:47.078Z,40.12
2022-10-01T10:39:52.361Z,42.53
2022-10-01T10:45:03.455Z,42.07
2022-10-01T10:50:30.742Z,44.23
2022-10-01T10:55:33.926Z,44.87
2022-10-01T11:00:46.548Z,46.05
2022-10-01T11:05:52.375Z,46.36
2022-10-01T11:11:34.253Z,45.57
2022-10-01T11:17:00.392Z,44.56
2022-10-01T11:22:24.585Z,46.63
2022-10-01T11:27:37.518Z,46.57
2022-10-01T11:33:09.866Z,46.59
2022-10-01T11:38:42.728Z,45.88
2022-10-01T11:43:55.761Z,46.22
2022-10-01T11:49:05.484Z,47.63
2022-10-01T11:54:15.685Z,47.52
2022-10-01T11:59:22.785Z,47.22
2022-10-01T12:04:42.863Z,46.92
2022-10-01T12:09:55.422Z,46.77
2022-10-01T12:15:14.906Z,47.86
2022-10-01T12:20:41.462Z,47.46
2022-10-01T12:25:55.430Z,49.62
2022-10-01T12:31:19.413Z,48.98
2022-10-01T12:37:04.815Z,49.11
2022-10-01T12:42:41.609Z,50.30
2022-10-01T12:48:16.767Z,49.64
2022-10-01T12:53:36.563Z,50.54
2022-10-01T12:59:07.831Z,51.02
2022-10-01T13:04:35.612Z,50.70
2022-10-01T13:10:16.402Z,51.95
2022-10-01T13:15:42.750Z,52.48
2022-10-01T13:21:01.835Z,52.77
2022-10-01T13:26:37.407Z,53.34
2022-10-01T13:32:02.762Z,52.93
2022-10-01T13:37:32.464Z,53.68
2022-10-01T13:42:47.897Z,53.72
2022-10-01T13:47:51.465Z,53.11
2022-10-01T13:53:14.385Z,53.60
2022-10-01T13:58:31.270Z,53.42
2022-10-01T14:03:45.020Z,52.94
2022-10-01T14:08:55.437Z,53.34
2022-10-01T14:14:23.082Z,54.26
2022-10-01T14:19:28.588Z,54.61
2022-10-01T14:24:51.098Z,54.98
2022-10-01T14:30:13.049Z,55.75
2022-10-01T14:35:43.084Z,57.02
2022-10-01T14:40:48.888Z,57.42
2022-10-01T14:45:59.200Z,58.67
2022-10-01T14:51:05.642Z,59.44
2022-10-01T14:56:14.455Z,60.71
2022-10-01T15:01:19.707Z,60.95
2022-10-01T15:06:28.242Z,61.68
2022-10-01T15:11:34.020Z,61.93
2022-10-01T15:16:38.335Z,61.97
2022-10-01T15:21:48.845Z,62.37
2022-10-01T15:26:54.553Z,63.31
2022-10-01T15:31:58.944Z,63.27
2022-10-01T15:37:02.942Z,64.18
2022-10-01T15:42:26.841Z,64.70
2022-10-01T15:47:35.175Z,66.29
2022-10-01T15:52:52.407Z,66.90
2022-10-01T15:58:07.495Z,66.92
2022-10-01T16:03:36.611Z,67.52
2022-10-01T16:08:55.586Z,68.74
2022-10-01T16:14:44.362Z,69.96
2022-10-01T16:19:50.975Z,70.99
2022-10-01T16:25:25.388Z,70.70
2022-10-01T16:30:30.004Z,70.37
2022-10-01T16:35:36.119Z,71.00
2022-10-01T16:40:44.997Z,71.59
2022-10-01T16:45:48.442Z,73.22
2022-10-01T16:50:59.070Z,73.61
2022-10-01T16:56:02.351Z,72.74
2022-10-01T17:01:11.957Z,73.96
2022-10-01T17:06:15.427Z,74.35
2022-10-01T17:11:18.703Z,74.35
2022-10-01T17:16:24.666Z,74.97
2022-10-01T17:21:29.709Z,73.77
2022-10-01T17:26:33.429Z,74.48
2022-10-01T17:31:38.563Z,75.11
2022-10-01T17:36:42.049Z,75.32
2022-10-01T17:41:45.311Z,73.60
2022-10-01T17:46:48.572Z,75.10
2022-10-01T17:51:53.317Z,76.07
2022-10-01T17:56:56.826Z,76.15
2022-10-01T18:02:01.312Z,76.54
2022-10-01T18:07:08.568Z,76.19
2022-10-01T18:12:13.639Z,76.91
2022-10-01T18:17:17.602Z,76.84
2022-10-01T18:22:22.054Z,77.09
2022-10-01T18:27:26.215Z,77.28
2022-10-01T18:32:37.970Z,77.44
2022-10-01T18:37:41.229Z,77.66
2022-10-01T18:43:08.876Z,78.04
2022-10-01T18:48:52.266Z,78.33
2022-10-01T18:54:13.555Z,78.76
2022-10-01T18:59:36.155Z,78.95
2022-10-01T19:04:45.405Z,78.57
2022-10-01T19:10:09.133Z,79.00
2022-10-01T19:15:40.568Z,79.37
2022-10-01T19:21:08.041Z,79.44
2022-10-01T19:26:29.381Z,79.85
2022-10-01T19:31:55.241Z,79.15
2022-10-01T19:37:11.529Z,80.18
2022-10-01T19:42:22.418Z,80.20
2022-10-01T19:47:41.086Z,80.65
2022-10-01T19:52:48.706Z,80.60
2022-10-01T19:57:53.032Z,81.60
2022-10-01T20:03:01.051Z,81.43
2022-10-01T20:08:14.719Z,82.15
2022-10-01T20:13:37.264Z,82.89
2022-10-01T20:18:52.563Z,82.74
2022-10-01T20:24:14.818Z,82.63
2022-10-01T20:29:58.475Z,82.41
2022-10-01T20:35:26.793Z,83.89
2022-10-01T20:40:52.852Z,82.13
2022-10-01T20:45:57.727Z,83.40
2022-10-01T20:51:07.105Z,84.07
2022-10-01T20:56:26.732Z,85.22
2022-10-01T21:01:35.115Z,86.07
2022-10-01T21:07:01.471Z,87.49
2022-10-01T21:12:16.593Z,87.53
2022-10-01T21:17:50.014Z,87.52
2022-10-01T21:23:14.547Z,87.69
2022-10-01T21:28:21.355Z,88.09
2022-10-01T21:33:31.594Z,86.44
2022-10-01T21:38:49.771Z,86.66
2022-10-01T21:44:11.133Z,85.11
2022-10-01T21:49:34.044Z,85.92
2022-10-01T21:55:14.855Z,85.66
2022-10-01T22:00:25.050Z,84.75
2022-10-01T22:06:13.016Z,84.20
2022-10-01T22:11:26.301Z,85.16
2022-10-01T22:16:38.728Z,86.21
2022-10-01T22:21:53.486Z,86.61
2022-10-01T22:27:08.984Z,87.23
2022-10-01T22:32:15.482Z,86.50
2022-10-01T22:37:24.713Z,86.64
2022-10-01T22:42:42.663Z,87.07
2022-10-01T22:48:39.790Z,86.43
2022-10-01T22:54:07.752Z,87.03
2022-10-01T22:59:35.893Z,86.50
2022-10-01T23:05:16.816Z,87.31
2022-10-01T23:10:34.770Z,87.63
2022-10-01T23:15:57.428Z,87.91
2022-10-01T23:21:00.541Z,87.53
2022-10-01T23:26:18.904Z,88.00
2022-10-01T23:32:00.445Z,88.09
2022-10-01T23:37:17.492Z,85.95
2022-10-01T23:42:28.124Z,87.49
2022-10-01T23:47:45.976Z,86.64
2022-10-01T23:53:03.537Z,86.73
2022-10-01T23:58:11.540Z,87.33
